Time;durP1;ratioP1;P1;durP2;ratioP2;P2;SDS_P1;SDS_P2;PMS_P1;PMS_P2;Temp;Humidity;BMP_temperature;BMP_pressure;BME280_temperature;BME280_humidity;BME280_pressure;Samples;Min_cycle;Max_cycle;Signal;HPM_P1;HPM_P2
2020/12/01 00:02:18;;;;;;;60.97;26.63;;;;;;;4.63;76.43;100750.25;5102953;28;20374;-64
2020/12/01 00:04:43;;;;;;;80.60;34.63;;;;;;;4.58;76.86;100763.66;5103114;28;20045;-64
2020/12/01 00:07:09;;;;;;;72.07;34.22;;;;;;;4.60;76.93;100759.16;5102808;28;20023;-66
2020/12/01 00:09:34;;;;;;;57.92;27.15;;;;;;;4.71;76.15;100758.47;5101773;28;20051;-66
2020/12/01 00:12:00;;;;;;;50.28;25.40;;;;;;;4.66;76.15;100757.94;5102937;28;20016;-64
2020/12/01 00:14:25;;;;;;;47.17;24.00;;;;;;;4.41;77.69;100764.75;5103031;28;20035;-64
2020/12/01 00:16:51;;;;;;;55.35;24.48;;;;;;;4.26;78.17;100760.47;5102918;28;20020;-65
2020/12/01 00:19:16;;;;;;;50.90;24.77;;;;;;;4.14;79.13;100763.84;5102886;28;20039;-66
2020/12/01 00:21:44;;;;;;;55.47;26.98;;;;;;;4.25;79.74;100760.59;5103102;28;20046;-64
2020/12/01 00:24:10;;;;;;;53.22;24.80;;;;;;;4.29;79.64;100764.69;5102735;28;20059;-64
2020/12/01 00:26:35;;;;;;;58.47;28.27;;;;;;;4.21;79.33;100765.19;5102799;28;20028;-64
2020/12/01 00:29:01;;;;;;;58.33;26.70;;;;;;;4.18;79.76;100772.38;5102645;28;20040;-66
2020/12/01 00:31:26;;;;;;;64.47;32.33;;;;;;;4.13;80.36;100770.88;5102657;28;20092;-66
2020/12/01 00:33:51;;;;;;;63.33;30.17;;;;;;;3.97;81.56;100767.53;5102709;28;20155;-64
2020/12/01 00:36:17;;;;;;;60.40;29.13;;;;;;;4.07;81.34;100773.03;5102519;28;20027;-66
2020/12/01 00:38:42;;;;;;;64.90;30.00;;;;;;;4.07;81.25;100770.41;5102621;28;20354;-66
2020/12/01 00:41:08;;;;;;;58.42;27.15;;;;;;;4.07;81.85;100775.66;5104104;28;20038;-66
2020/12/01 00:43:34;;;;;;;59.42;27.45;;;;;;;4.09;81.61;100776.41;5106366;28;20024;-66
2020/12/01 00:46:00;;;;;;;59.50;26.77;;;;;;;4.11;81.38;100769.28;5106415;28;20047;-64
2020/12/01 00:48:25;;;;;;;57.77;27.40;;;;;;;4.02;81.75;100775.09;5106314;28;20032;-66
2020/12/01 00:50:51;;;;;;;54.60;25.42;;;;;;;4.15;81.62;100768.16;5105131;28;20019;-66
2020/12/01 00:53:17;;;;;;;48.28;25.17;;;;;;;4.09;81.54;100769.38;5106177;28;20087;-64
2020/12/01 00:55:43;;;;;;;57.40;25.65;;;;;;;3.88;81.99;100769.88;5106007;28;20085;-66
2020/12/01 00:58:08;;;;;;;50.30;24.60;;;;;;;3.88;82.18;100752.38;5105933;28;20087;-64
2020/12/01 01:00:34;;;;;;;55.75;24.95;;;;;;;3.89;82.48;100768.94;5106623;28;20049;-66
2020/12/01 01:02:59;;;;;;;58.03;26.33;;;;;;;3.97;82.58;100766.69;5106260;28;20020;-66
2020/12/01 01:05:25;;;;;;;56.30;24.75;;;;;;;3.98;82.08;100763.13;5106346;28;20093;-66
2020/12/01 01:07:51;;;;;;;58.95;26.95;;;;;;;4.17;81.78;100758.44;5105948;28;20020;-66
2020/12/01 01:10:20;;;;;;;59.13;27.30;;;;;;;4.11;81.89;100751.78;5106311;28;20027;-66
2020/12/01 01:12:46;;;;;;;58.08;27.58;;;;;;;4.03;82.23;100753.19;5105950;28;20031;-64
2020/12/01 01:15:12;;;;;;;60.67;27.57;;;;;;;4.02;82.44;100759.38;5104492;28;20028;-66
2020/12/01 01:17:37;;;;;;;64.05;29.02;;;;;;;4.12;81.67;100755.22;5105789;28;20325;-64
2020/12/01 01:20:05;;;;;;;65.55;27.58;;;;;;;4.04;81.92;100750.47;5105995;28;20076;-64
2020/12/01 01:22:30;;;;;;;72.50;31.70;;;;;;;4.03;82.14;100753.19;5106248;28;20232;-66
2020/12/01 01:24:56;;;;;;;68.82;31.00;;;;;;;4.11;82.56;100749.16;5105463;28;20028;-64
2020/12/01 01:27:21;;;;;;;75.55;32.95;;;;;;;4.30;81.05;100751.50;5105621;28;20028;-66
2020/12/01 01:29:47;;;;;;;74.07;32.72;;;;;;;4.20;81.30;100752.16;5104485;28;20266;-64
2020/12/01 01:32:12;;;;;;;76.05;32.97;;;;;;;4.01;82.04;100737.56;5105523;28;20434;-66
2020/12/01 01:34:37;;;;;;;78.10;34.10;;;;;;;4.00;82.60;100750.75;5105519;28;20054;-64
2020/12/01 01:37:04;;;;;;;85.30;34.42;;;;;;;3.90;82.93;100747.88;5105332;28;20088;-66
2020/12/01 01:39:30;;;;;;;83.10;34.23;;;;;;;4.03;81.96;100734.84;5105579;28;20259;-66
2020/12/01 01:41:55;;;;;;;79.23;33.03;;;;;;;4.09;81.36;100744.94;5105370;28;20058;-66
2020/12/01 01:44:25;;;;;;;71.97;32.87;;;;;;;3.83;82.16;100743.94;5105407;28;20099;-66
2020/12/01 01:46:54;;;;;;;86.47;35.27;;;;;;;3.69;83.38;100738.72;5105296;28;20028;-67
2020/12/01 01:49:22;;;;;;;75.27;32.93;;;;;;;3.80;82.68;100731.88;5105590;28;20315;-67
2020/12/01 01:51:54;;;;;;;85.17;34.57;;;;;;;3.78;82.67;100731.13;5104862;28;20237;-66
2020/12/01 01:54:21;;;;;;;82.78;33.33;;;;;;;3.54;83.67;100735.25;5104904;28;20048;-68
2020/12/01 01:56:52;;;;;;;82.97;35.27;;;;;;;3.49;84.54;100739.94;5105069;28;20322;-67
2020/12/01 01:59:18;;;;;;;80.77;33.50;;;;;;;3.52;84.71;100737.97;5105018;28;20040;-69
2020/12/01 02:01:44;;;;;;;75.30;31.33;;;;;;;3.61;84.03;100730.50;5105029;28;20042;-69
2020/12/01 02:04:13;;;;;;;83.97;34.40;;;;;;;3.46;84.39;100729.66;5104992;28;20040;-66
2020/12/01 02:06:47;;;;;;;82.80;33.80;;;;;;;3.36;85.21;100731.97;5104625;28;20027;-68
2020/12/01 02:09:35;;;;;;;81.78;34.42;;;;;;;3.48;85.27;100723.38;5104943;28;20044;-66
2020/12/01 02:12:03;;;;;;;79.87;33.23;;;;;;;3.45;85.71;100733.19;5104654;28;20028;-67
2020/12/01 02:14:32;;;;;;;83.73;33.90;;;;;;;3.57;85.38;100729.00;5104796;28;20044;-66
2020/12/01 02:17:11;;;;;;;76.63;32.77;;;;;;;3.70;83.86;100729.94;5104718;28;20077;-68
2020/12/01 02:19:38;;;;;;;76.80;31.85;;;;;;;3.71;82.67;100729.81;5104825;28;20103;-67
2020/12/01 02:22:03;;;;;;;77.03;32.23;;;;;;;3.76;82.80;100724.31;5104524;28;20229;-69
2020/12/01 02:24:31;;;;;;;78.17;32.20;;;;;;;3.78;82.39;100720.66;5104711;28;20039;-67
2020/12/01 02:26:59;;;;;;;73.70;30.05;;;;;;;3.61;83.41;100728.72;5104661;28;20023;-66
2020/12/01 02:29:31;;;;;;;75.13;32.00;;;;;;;3.56;83.63;100733.38;5104494;28;20149;-68
2020/12/01 02:31:57;;;;;;;81.17;31.87;;;;;;;3.58;83.78;100728.91;5104357;28;20028;-69
2020/12/01 02:34:32;;;;;;;72.93;31.33;;;;;;;3.57;84.72;100734.22;5104423;28;20043;-69
2020/12/01 02:36:58;;;;;;;74.40;31.97;;;;;;;3.70;83.61;100719.44;5104205;28;20023;-67
2020/12/01 02:39:27;;;;;;;77.07;34.00;;;;;;;3.71;82.71;100727.22;5104387;28;20123;-68
2020/12/01 02:41:53;;;;;;;75.73;31.20;;;;;;;3.82;82.77;100730.00;5104201;28;20031;-66
2020/12/01 02:44:19;;;;;;;73.23;31.80;;;;;;;3.94;81.75;100723.16;5104298;28;20317;-69
2020/12/01 02:46:44;;;;;;;70.13;29.53;;;;;;;3.52;83.08;100724.03;5104139;28;20025;-67
2020/12/01 02:49:10;;;;;;;74.17;31.13;;;;;;;3.59;84.22;100724.50;5104004;28;20035;-68
2020/12/01 02:51:35;;;;;;;71.37;32.67;;;;;;;3.71;83.05;100721.97;5104114;28;20250;-69
2020/12/01 02:54:02;;;;;;;71.37;31.47;;;;;;;3.79;82.26;100722.34;5103665;28;20044;-69
2020/12/01 02:56:27;;;;;;;72.82;29.42;;;;;;;3.88;81.86;100728.78;5103910;28;20094;-66
2020/12/01 02:58:53;;;;;;;67.50;29.33;;;;;;;4.02;81.51;100723.53;5103831;28;20087;-66
2020/12/01 03:01:18;;;;;;;68.40;29.52;;;;;;;3.77;81.81;100733.84;5103790;28;20389;-66
2020/12/01 03:03:44;;;;;;;64.50;28.10;;;;;;;3.86;81.16;100730.66;5103029;28;20039;-66
2020/12/01 03:06:15;;;;;;;67.23;29.57;;;;;;;3.83;81.72;100726.44;5103530;28;20027;-68
2020/12/01 03:08:41;;;;;;;66.30;28.23;;;;;;;3.86;81.19;100733.28;5103650;28;20336;-69
2020/12/01 03:11:07;;;;;;;67.00;29.43;;;;;;;3.93;80.90;100738.97;5103672;28;20032;-66
2020/12/01 03:13:33;;;;;;;57.25;26.73;;;;;;;3.84;81.01;100737.78;5103769;28;20042;-67
2020/12/01 03:16:03;;;;;;;63.27;27.80;;;;;;;3.78;80.49;100730.28;5103654;28;20222;-69
2020/12/01 03:18:28;;;;;;;62.65;26.33;;;;;;;3.61;80.73;100740.97;5103540;28;20293;-67
2020/12/01 03:20:54;;;;;;;68.57;28.08;;;;;;;3.52;80.98;100739.75;5103706;28;20100;-68
2020/12/01 03:23:19;;;;;;;61.90;27.37;;;;;;;3.78;80.40;100738.16;5103628;28;20020;-69
2020/12/01 03:25:45;;;;;;;59.65;25.83;;;;;;;3.72;80.35;100736.75;5103670;28;20191;-69
2020/12/01 03:28:10;;;;;;;70.37;30.00;;;;;;;3.54;80.74;100740.50;5103437;28;20083;-66
2020/12/01 03:30:36;;;;;;;68.97;29.53;;;;;;;3.24;82.85;100740.56;5103843;28;20047;-68
2020/12/01 03:33:01;;;;;;;64.93;27.23;;;;;;;3.40;82.07;100745.72;5103199;28;20389;-68
2020/12/01 03:35:27;;;;;;;65.67;28.63;;;;;;;3.50;81.42;100736.38;5103501;28;20039;-67
2020/12/01 03:37:54;;;;;;;62.08;26.77;;;;;;;3.49;81.63;100739.94;5103373;28;20028;-67
2020/12/01 03:40:20;;;;;;;63.70;27.27;;;;;;;3.42;82.06;100723.75;5103612;28;20323;-67
2020/12/01 03:42:45;;;;;;;63.90;27.97;;;;;;;3.62;80.79;100734.78;5103306;28;20032;-67
2020/12/01 03:45:10;;;;;;;62.88;26.48;;;;;;;3.50;80.71;100733.75;5103451;28;20040;-68
2020/12/01 03:47:36;;;;;;;61.25;25.73;;;;;;;3.66;80.01;100742.38;5103529;28;20248;-66
2020/12/01 03:50:03;;;;;;;61.67;25.88;;;;;;;3.89;79.71;100745.34;5103322;28;20302;-69
2020/12/01 03:52:28;;;;;;;64.03;26.23;;;;;;;3.88;79.05;100752.38;5103144;28;20024;-69
2020/12/01 03:54:54;;;;;;;58.63;26.58;;;;;;;3.80;80.24;100749.38;5102738;28;20051;-67
2020/12/01 03:57:19;;;;;;;56.13;26.08;;;;;;;3.80;80.90;100755.47;5102979;28;20095;-67
2020/12/01 03:59:44;;;;;;;58.63;25.58;;;;;;;3.87;80.16;100755.09;5103248;28;20229;-68
2020/12/01 04:02:10;;;;;;;60.33;27.00;;;;;;;3.56;80.98;100754.34;5102993;28;20104;-69
2020/12/01 04:04:35;;;;;;;57.03;25.30;;;;;;;3.75;81.00;100759.28;5103076;28;20073;-67
2020/12/01 04:07:01;;;;;;;57.50;26.05;;;;;;;3.92;79.91;100755.63;5103099;28;20209;-66
2020/12/01 04:09:26;;;;;;;61.63;27.02;;;;;;;3.95;79.15;100758.06;5103229;28;20103;-67
2020/12/01 04:11:52;;;;;;;58.33;26.93;;;;;;;3.86;78.91;100759.47;5103260;28;20077;-69
2020/12/01 04:14:17;;;;;;;62.55;26.45;;;;;;;4.00;78.75;100751.59;5102910;28;20043;-69
2020/12/01 04:16:43;;;;;;;57.27;25.23;;;;;;;3.98;78.51;100747.41;5107124;28;20221;-67
2020/12/01 04:19:08;;;;;;;60.50;25.63;;;;;;;3.99;78.42;100751.69;5107000;28;20031;-66
2020/12/01 04:21:34;;;;;;;59.95;24.83;;;;;;;3.95;78.25;100748.44;5106818;28;20046;-68
2020/12/01 04:23:59;;;;;;;57.83;25.30;;;;;;;3.75;78.87;100757.53;5106948;28;20035;-67
2020/12/01 04:26:25;;;;;;;57.95;26.40;;;;;;;3.50;79.07;100759.94;5107027;28;20303;-67
2020/12/01 04:28:50;;;;;;;61.63;26.90;;;;;;;3.71;78.84;100760.41;5106693;28;20087;-69
2020/12/01 04:31:16;;;;;;;56.40;24.93;;;;;;;3.70;78.22;100756.13;5106707;28;20409;-69
2020/12/01 04:33:42;;;;;;;63.50;26.65;;;;;;;3.60;78.63;100761.06;5106741;28;20197;-69
2020/12/01 04:36:09;;;;;;;65.32;27.10;;;;;;;3.42;78.69;100763.03;5106484;28;20302;-67
2020/12/01 04:38:34;;;;;;;66.72;28.98;;;;;;;3.39;78.90;100749.28;5106564;28;20024;-66
2020/12/01 04:41:00;;;;;;;61.25;27.08;;;;;;;3.41;78.62;100761.34;5106475;28;20032;-67
2020/12/01 04:43:37;;;;;;;61.60;27.37;;;;;;;3.14;80.56;100757.75;5106472;28;20023;-67
2020/12/01 04:46:05;;;;;;;56.23;24.03;;;;;;;3.29;79.79;100756.84;5106533;28;20158;-67
2020/12/01 04:48:36;;;;;;;57.10;25.65;;;;;;;3.22;78.71;100749.44;5106348;28;20051;-67
2020/12/01 04:51:36;;;;;;;61.80;24.73;;;;;;;3.20;79.04;100755.59;5106225;28;20038;-67
2020/12/01 04:54:30;;;;;;;55.60;23.57;;;;;;;3.12;79.87;100756.94;5105934;28;20043;-69
2020/12/01 04:57:16;;;;;;;54.58;24.60;;;;;;;3.25;79.06;100759.72;5106246;28;20027;-66
2020/12/01 04:59:55;;;;;;;54.13;24.38;;;;;;;3.47;77.79;100760.97;5106419;28;20225;-67
2020/12/01 05:02:26;;;;;;;56.08;23.90;;;;;;;3.50;76.87;100766.03;5106130;28;20028;-68
2020/12/01 05:05:36;;;;;;;52.90;23.27;;;;;;;3.46;76.86;100768.91;5106197;28;20044;-68
2020/12/01 05:08:15;;;;;;;60.50;25.30;;;;;;;3.35;76.69;100769.56;5105876;28;20039;-66
2020/12/01 05:10:46;;;;;;;56.05;23.80;;;;;;;3.22;76.28;100762.53;5105982;28;20043;-69
2020/12/01 05:13:20;;;;;;;57.20;23.77;;;;;;;3.24;77.20;100760.66;5105855;28;20038;-69
2020/12/01 05:15:49;;;;;;;50.65;22.45;;;;;;;3.19;76.86;100761.78;5105873;28;20345;-69
2020/12/01 05:18:19;;;;;;;47.40;21.13;;;;;;;3.00;77.83;100762.91;5105640;28;20126;-68
2020/12/01 05:20:50;;;;;;;56.53;25.50;;;;;;;2.98;77.43;100763.00;5106168;28;20043;-69
2020/12/01 05:23:29;;;;;;;56.80;25.47;;;;;;;3.03;76.96;100757.50;5105559;28;20107;-68
2020/12/01 05:26:12;;;;;;;57.70;26.80;;;;;;;2.90;77.54;100759.97;5104350;28;20031;-69
2020/12/01 05:28:55;;;;;;;46.37;21.50;;;;;;;2.93;77.00;100754.56;5105482;28;20039;-67
2020/12/01 05:31:26;;;;;;;48.00;23.87;;;;;;;2.94;77.32;100763.25;5105591;28;20265;-69
2020/12/01 05:34:00;;;;;;;51.23;23.70;;;;;;;2.93;76.21;100766.81;5105526;28;20044;-67
2020/12/01 05:36:34;;;;;;;47.15;22.83;;;;;;;2.97;75.72;100761.31;5105233;28;20048;-69
2020/12/01 05:39:17;;;;;;;54.80;25.50;;;;;;;2.88;75.06;100761.84;5105500;28;20039;-69
2020/12/01 05:41:45;;;;;;;54.27;24.07;;;;;;;3.04;74.58;100752.16;5105466;28;20036;-66
2020/12/01 05:44:18;;;;;;;52.83;24.43;;;;;;;3.19;74.79;100769.63;5105269;28;20063;-69
2020/12/01 05:46:50;;;;;;;50.77;23.70;;;;;;;3.23;74.65;100772.91;5105510;28;20304;-66
2020/12/01 05:49:35;;;;;;;49.93;23.37;;;;;;;3.11;75.69;100773.59;5105370;28;20065;-68
2020/12/01 05:52:19;;;;;;;61.03;25.93;;;;;;;3.29;74.17;100776.94;5105192;28;20325;-67
2020/12/01 05:54:47;;;;;;;53.93;26.00;;;;;;;3.29;74.37;100776.94;5104978;28;20054;-68
2020/12/01 05:57:31;;;;;;;57.28;24.45;;;;;;;3.36;73.92;100778.25;5105017;28;20422;-68
2020/12/01 06:00:02;;;;;;;76.57;28.73;;;;;;;3.49;71.74;100774.81;5105231;28;20032;-66
2020/12/01 06:03:05;;;;;;;61.40;25.57;;;;;;;3.32;72.74;100780.22;5104938;28;20038;-67
2020/12/01 06:05:31;;;;;;;58.10;29.70;;;;;;;3.24;73.07;100782.44;5070105;28;20074;-69
2020/12/01 06:08:09;;;;;;;70.27;28.30;;;;;;;3.33;72.73;100787.13;5104763;28;20028;-68
2020/12/01 06:10:40;;;;;;;64.77;29.37;;;;;;;3.25;71.66;100772.81;5105354;28;20044;-68
2020/12/01 06:13:24;;;;;;;68.30;33.72;;;;;;;3.23;72.89;100775.53;5104988;28;20028;-67
2020/12/01 06:16:17;;;;;;;63.30;35.65;;;;;;;3.23;73.03;100785.16;5104688;28;20089;-66
2020/12/01 06:18:50;;;;;;;45.80;23.83;;;;;;;3.39;71.52;100780.69;5104241;28;20067;-67
2020/12/01 06:21:18;;;;;;;54.83;26.30;;;;;;;3.33;72.24;100784.50;5104668;28;20313;-66
2020/12/01 06:24:12;;;;;;;57.70;29.87;;;;;;;3.41;71.47;100786.69;5104546;28;20379;-69
2020/12/01 06:27:08;;;;;;;63.97;27.98;;;;;;;3.42;70.29;100775.28;5104531;28;20023;-67
2020/12/01 06:29:43;;;;;;;88.60;39.53;;;;;;;3.23;72.11;100777.28;5104635;28;20314;-67
2020/12/01 06:32:30;;;;;;;82.57;41.90;;;;;;;3.34;71.99;100780.97;5104376;28;20028;-66
2020/12/01 06:35:14;;;;;;;64.00;30.90;;;;;;;3.47;71.24;100776.69;5104368;28;20348;-69
2020/12/01 06:37:56;;;;;;;40.30;22.55;;;;;;;3.45;70.27;100773.31;5103901;28;20059;-69
2020/12/01 06:40:36;;;;;;;48.30;22.58;;;;;;;3.36;70.79;100773.88;5104300;28;20218;-67
2020/12/01 06:43:36;;;;;;;41.70;20.73;;;;;;;3.48;71.17;100780.97;5102971;28;20016;-67
2020/12/01 06:46:15;;;;;;;40.78;19.10;;;;;;;3.66;71.01;100768.56;5087832;28;20051;-68
2020/12/01 06:48:48;;;;;;;42.70;19.20;;;;;;;3.41;71.71;100778.81;5104223;28;20226;-69
2020/12/01 06:51:14;;;;;;;43.13;20.42;;;;;;;3.49;71.86;100784.44;5103980;28;20032;-68
2020/12/01 06:53:41;;;;;;;59.67;24.65;;;;;;;3.64;72.04;100786.13;5103769;28;20314;-68
2020/12/01 06:56:06;;;;;;;54.10;26.03;;;;;;;3.73;71.50;100782.97;5103925;28;20036;-67
2020/12/01 06:58:40;;;;;;;44.07;19.17;;;;;;;3.61;70.78;100790.72;5103742;28;20199;-69
2020/12/01 07:01:25;;;;;;;52.03;20.73;;;;;;;3.45;70.82;100789.03;5103835;28;20035;-69
2020/12/01 07:04:12;;;;;;;65.07;24.70;;;;;;;3.66;70.81;100789.50;5103773;28;20036;-67
2020/12/01 07:06:59;;;;;;;70.63;26.63;;;;;;;3.67;70.54;100790.34;5103900;28;20024;-69
2020/12/01 07:09:30;;;;;;;65.63;23.30;;;;;;;3.38;72.60;100781.63;5103947;28;20056;-69
2020/12/01 07:12:28;;;;;;;57.97;23.77;;;;;;;3.49;71.16;100787.06;5103669;28;20035;-67
2020/12/01 07:15:05;;;;;;;53.83;24.17;;;;;;;3.85;69.83;100787.47;5096182;28;20236;-67
2020/12/01 07:17:57;;;;;;;50.90;22.53;;;;;;;3.81;70.10;100783.34;5103655;28;20032;-68
2020/12/01 07:20:34;;;;;;;48.15;21.95;;;;;;;4.16;68.66;100782.94;5103987;28;20374;-67
2020/12/01 07:23:28;;;;;;;52.50;23.67;;;;;;;4.13;68.54;100786.59;5103485;28;20055;-69
2020/12/01 07:26:12;;;;;;;62.40;25.05;;;;;;;3.81;69.79;100777.25;5103513;28;20040;-69
2020/12/01 07:28:54;;;;;;;57.88;27.30;;;;;;;3.95;69.49;100779.88;5103285;28;20039;-69
2020/12/01 07:31:41;;;;;;;50.63;22.55;;;;;;;4.13;68.70;100773.50;5103356;28;20031;-69
2020/12/01 07:34:30;;;;;;;46.30;22.10;;;;;;;4.64;67.04;100772.94;5103298;28;20233;-67
2020/12/01 07:37:17;;;;;;;53.05;26.50;;;;;;;4.71;65.88;100774.22;5103168;28;20099;-68
2020/12/01 07:39:54;;;;;;;66.53;26.85;;;;;;;4.59;64.05;100775.00;5103493;28;20038;-66
2020/12/01 07:42:22;;;;;;;71.07;31.33;;;;;;;4.75;65.43;100776.53;5103375;28;20050;-67
2020/12/01 07:44:48;;;;;;;64.65;24.58;;;;;;;4.73;65.97;100778.41;5103492;28;20100;-68
2020/12/01 07:47:17;;;;;;;54.13;24.25;;;;;;;4.82;65.21;100769.09;5103182;28;20393;-69
2020/12/01 07:49:43;;;;;;;51.45;22.88;;;;;;;5.06;63.54;100766.66;5103077;28;20376;-69
2020/12/01 07:52:14;;;;;;;58.53;24.33;;;;;;;4.90;65.40;100768.59;5101954;28;20031;-69
2020/12/01 07:54:42;;;;;;;55.30;24.45;;;;;;;5.21;64.87;100765.66;5102755;28;20044;-69
2020/12/01 07:57:16;;;;;;;49.80;22.42;;;;;;;5.29;64.29;100758.09;5102989;28;20084;-67
2020/12/01 07:59:44;;;;;;;50.00;23.77;;;;;;;5.33;63.90;100770.09;5103273;28;20055;-67
2020/12/01 08:02:09;;;;;;;48.92;23.48;;;;;;;5.22;63.38;100769.97;5102958;28;20058;-69
2020/12/01 08:04:35;;;;;;;49.03;22.80;;;;;;;5.37;64.53;100761.06;5102968;28;20032;-69
2020/12/01 08:07:06;;;;;;;59.53;24.35;;;;;;;5.53;62.58;100775.75;5103119;28;20091;-67
2020/12/01 08:09:32;;;;;;;74.07;27.85;;;;;;;5.43;62.67;100765.88;5103078;28;20028;-67
2020/12/01 08:12:09;;;;;;;59.78;24.33;;;;;;;5.19;63.90;100772.75;5102933;28;20074;-66
2020/12/01 08:14:36;;;;;;;56.90;24.48;;;;;;;5.35;64.37;100773.44;5102976;28;20095;-69
2020/12/01 08:17:12;;;;;;;59.50;26.13;;;;;;;5.35;63.81;100773.44;5102877;28;20087;-69
2020/12/01 08:19:38;;;;;;;66.22;25.73;;;;;;;5.43;64.19;100771.13;5103016;28;20099;-66
2020/12/01 08:22:06;;;;;;;62.63;24.85;;;;;;;5.62;63.86;100775.13;5102840;28;20070;-67
2020/12/01 08:24:38;;;;;;;51.33;22.45;;;;;;;5.37;63.42;100774.19;5103018;28;20063;-69
2020/12/01 08:27:15;;;;;;;48.90;23.10;;;;;;;5.42;63.14;100772.09;5102773;28;20035;-68
2020/12/01 08:29:42;;;;;;;52.17;21.35;;;;;;;5.48;63.97;100777.88;5102957;28;20028;-67
2020/12/01 08:32:26;;;;;;;47.20;23.60;;;;;;;5.61;62.01;100774.28;5102736;28;20051;-67
2020/12/01 08:35:13;;;;;;;39.63;19.10;;;;;;;5.44;62.59;100769.34;5102773;28;20032;-69
2020/12/01 08:38:04;;;;;;;49.20;22.33;;;;;;;5.37;64.01;100761.06;5102580;28;20054;-69
2020/12/01 08:40:50;;;;;;;38.85;18.65;;;;;;;5.35;61.52;100768.19;5103095;28;20054;-67
2020/12/01 08:43:36;;;;;;;45.08;23.55;;;;;;;5.63;62.85;100763.69;5102433;28;20036;-69
2020/12/01 08:46:09;;;;;;;43.05;20.65;;;;;;;5.60;63.39;100756.84;5102567;28;20028;-69
2020/12/01 08:48:38;;;;;;;35.75;17.38;;;;;;;5.52;62.84;100759.16;5102731;28;20040;-68
2020/12/01 08:51:22;;;;;;;36.47;18.50;;;;;;;5.78;60.04;100745.06;5102495;28;20024;-67
2020/12/01 08:54:08;;;;;;;42.97;20.65;;;;;;;5.69;60.80;100740.44;5102340;28;20044;-68
2020/12/01 08:56:57;;;;;;;32.20;14.90;;;;;;;5.56;60.98;100737.00;5102506;28;20027;-67
2020/12/01 08:59:33;;;;;;;35.17;15.70;;;;;;;5.71;60.66;100735.09;5095840;28;20081;-67
2020/12/01 09:02:04;;;;;;;37.97;17.15;;;;;;;5.73;61.66;100725.31;5103526;28;20023;-69
2020/12/01 09:04:33;;;;;;;37.30;17.00;;;;;;;5.82;59.45;100721.19;5106152;28;20047;-69
2020/12/01 09:07:09;;;;;;;37.60;16.48;;;;;;;5.88;59.48;100718.97;5106215;28;20071;-67
2020/12/01 09:09:35;;;;;;;35.63;16.08;;;;;;;5.60;60.52;100714.81;5106219;28;20043;-68
2020/12/01 09:12:57;;;;;;;33.47;14.77;;;;;;;5.57;60.03;100720.28;5105969;28;20244;-69
2020/12/01 09:15:17;;;;;;;35.88;16.63;;;;;;;5.92;61.03;100711.75;5103054;28;20157;-69
2020/12/01 09:18:10;;;;;;;35.03;16.45;;;;;;;5.95;59.93;100709.72;5105991;28;20320;-67
2020/12/01 09:23:26;;;;;;;35.50;17.77;;;;;;;6.04;58.29;100693.31;5106061;28;20066;-69
2020/12/01 09:25:54;;;;;;;30.83;16.13;;;;;;;6.44;55.83;100698.34;5105774;28;20208;-67
2020/12/01 09:28:25;;;;;;;35.20;16.23;;;;;;;6.19;57.62;100691.34;5105466;28;20359;-68
2020/12/01 09:30:51;;;;;;;38.83;17.17;;;;;;;6.30;56.31;100686.19;5104474;28;20044;-67
2020/12/01 09:33:22;;;;;;;32.58;15.98;;;;;;;6.32;58.28;100686.06;5105360;28;20020;-69
2020/12/01 09:35:50;;;;;;;36.10;16.95;;;;;;;6.33;59.49;100682.50;5105350;28;20039;-69
2020/12/01 09:38:16;;;;;;;32.50;15.13;;;;;;;6.12;60.23;100679.59;5105515;28;20028;-69
2020/12/01 09:40:44;;;;;;;36.22;15.70;;;;;;;6.34;57.62;100679.75;5105475;28;20028;-68
2020/12/01 09:43:19;;;;;;;34.05;16.38;;;;;;;6.48;57.75;100677.91;5105281;28;20024;-67
2020/12/01 09:45:46;;;;;;;33.05;16.40;;;;;;;6.57;57.76;100677.22;5105507;28;20036;-68
2020/12/01 09:48:26;;;;;;;33.20;15.88;;;;;;;6.54;58.83;100677.44;5105515;28;20023;-69
2020/12/01 09:50:52;;;;;;;33.97;15.65;;;;;;;6.55;57.95;100668.59;5105279;28;20036;-69
2020/12/01 09:55:55;;;;;;;35.63;17.00;;;;;;;6.46;57.31;100661.38;5104943;28;20329;-67
2020/12/01 10:19:48;;;;;;;;;;;;;;;6.12;58.99;100652.47;5105437;28;20023;-67
2020/12/01 10:35:31;;;;;;;34.33;15.82;;;;;;;6.15;55.64;100636.47;5104717;28;20348;-69
2020/12/01 10:37:58;;;;;;;29.17;14.57;;;;;;;6.13;55.33;100633.94;5104206;28;20039;-69
2020/12/01 10:40:26;;;;;;;30.40;14.20;;;;;;;6.24;55.97;100633.16;5104678;28;20040;-69
2020/12/01 10:42:51;;;;;;;28.70;13.73;;;;;;;6.26;53.80;100615.50;5104494;28;20047;-68
2020/12/01 10:45:18;;;;;;;27.63;13.55;;;;;;;6.41;53.92;100630.16;5103147;28;20032;-67
2020/12/01 10:47:44;;;;;;;31.38;14.88;;;;;;;6.35;56.00;100625.34;5104412;28;20202;-67
2020/12/01 10:50:11;;;;;;;34.28;16.27;;;;;;;6.26;56.62;100613.72;5104326;28;20199;-68
2020/12/01 10:52:37;;;;;;;31.92;15.73;;;;;;;6.02;56.20;100608.44;5102904;28;20310;-68
2020/12/01 10:55:04;;;;;;;35.08;15.60;;;;;;;6.13;56.54;100612.06;5103678;28;20048;-66
2020/12/01 10:57:29;;;;;;;25.77;12.95;;;;;;;6.40;54.27;100610.06;5103893;28;20024;-68
2020/12/01 10:59:54;;;;;;;28.98;14.48;;;;;;;6.30;55.35;100607.28;5104072;28;20091;-69
2020/12/01 11:02:20;;;;;;;31.25;15.50;;;;;;;6.15;55.75;100605.75;5103867;28;20023;-66
2020/12/01 11:04:45;;;;;;;14.95;7.22;;;;;;;6.12;53.99;100599.88;5103979;28;20228;-67
2020/12/01 11:07:11;;;;;;;19.85;9.27;;;;;;;6.20;53.77;100595.75;5103707;28;20261;-68
2020/12/01 11:09:36;;;;;;;20.10;10.80;;;;;;;6.41;53.75;100588.06;5103986;28;20321;-66
2020/12/01 11:12:01;;;;;;;27.25;13.73;;;;;;;6.45;54.23;100586.88;5103770;28;20028;-67
2020/12/01 11:14:27;;;;;;;24.05;12.00;;;;;;;6.42;54.28;100583.66;5103715;28;20040;-69
2020/12/01 11:16:52;;;;;;;20.73;10.70;;;;;;;6.19;51.79;100582.69;5103804;28;20028;-68
2020/12/01 11:19:18;;;;;;;25.73;11.82;;;;;;;6.26;55.95;100581.31;5103677;28;20042;-67
2020/12/01 11:21:43;;;;;;;20.42;10.30;;;;;;;6.31;52.67;100582.66;5103658;28;20031;-69
2020/12/01 11:24:09;;;;;;;20.52;11.00;;;;;;;6.28;52.44;100576.78;5102945;28;20349;-69
2020/12/01 11:26:34;;;;;;;21.80;10.35;;;;;;;6.27;52.62;100573.31;5103346;28;20019;-68
2020/12/01 11:29:01;;;;;;;19.92;9.82;;;;;;;6.16;52.19;100567.16;5103446;28;20095;-68
2020/12/01 11:31:27;;;;;;;22.35;10.95;;;;;;;6.23;52.23;100560.47;5103334;28;20043;-69
2020/12/01 11:34:03;;;;;;;23.52;10.00;;;;;;;6.32;52.01;100563.28;5103305;28;20063;-68
2020/12/01 11:36:29;;;;;;;17.30;8.80;;;;;;;6.29;51.97;100560.06;5103250;28;20318;-66
2020/12/01 11:38:54;;;;;;;19.10;9.10;;;;;;;6.15;51.24;100557.59;5103289;28;20054;-68
2020/12/01 11:41:20;;;;;;;20.08;10.30;;;;;;;6.04;50.23;100550.50;5103287;28;20032;-67
2020/12/01 11:43:46;;;;;;;20.38;10.40;;;;;;;6.08;50.72;100554.56;5103198;28;20040;-67
2020/12/01 11:46:12;;;;;;;19.75;9.15;;;;;;;6.03;51.73;100549.66;5103418;28;20099;-69
2020/12/01 11:48:37;;;;;;;16.63;9.70;;;;;;;6.17;50.82;100547.78;5103206;28;20314;-68
2020/12/01 11:51:03;;;;;;;21.17;10.27;;;;;;;6.29;51.95;100550.38;5103155;28;20361;-68
2020/12/01 11:53:28;;;;;;;22.23;10.13;;;;;;;6.37;49.50;100545.38;5102855;28;20314;-67
2020/12/01 11:55:55;;;;;;;18.05;9.52;;;;;;;6.50;51.39;100542.66;5103035;28;20056;-67
2020/12/01 11:58:20;;;;;;;19.05;9.38;;;;;;;6.44;51.78;100548.38;5102849;28;20028;-67
2020/12/01 12:00:46;;;;;;;18.00;9.45;;;;;;;6.51;52.16;100536.44;5102987;28;20251;-68
2020/12/01 12:03:11;;;;;;;20.58;9.27;;;;;;;6.34;51.55;100545.59;5102830;28;20035;-68
2020/12/01 12:05:36;;;;;;;20.77;10.02;;;;;;;6.25;49.85;100543.66;5103350;28;20043;-67
2020/12/01 12:08:02;;;;;;;22.55;10.10;;;;;;;6.30;49.30;100523.13;5102849;28;20028;-66
2020/12/01 12:10:28;;;;;;;22.63;10.13;;;;;;;6.57;49.42;100530.69;5103414;28;20048;-68
2020/12/01 12:12:53;;;;;;;19.27;9.02;;;;;;;6.60;49.35;100527.00;5102909;28;20028;-67
2020/12/01 12:15:18;;;;;;;18.15;9.38;;;;;;;6.45;48.79;100526.38;5103222;28;20040;-69